Time;durP1;ratioP1;P1;durP2;ratioP2;P2;SDS_P1;SDS_P2;PMS_P1;PMS_P2;Temp;Humidity;BMP_temperature;BMP_pressure;BME280_temperature;BME280_humidity;BME280_pressure;Samples;Min_cycle;Max_cycle;Signal;HPM_P1;HPM_P2
2022/04/02 00:02:17;;;;;;;1.40;0.83;;;23.10;33.20;;;;;;5031712;28;20388;-65
2022/04/02 00:04:42;;;;;;;1.40;1.00;;;23.10;33.20;;;;;;5032263;28;20763;-65
2022/04/02 00:07:08;;;;;;;1.55;1.00;;;23.00;33.10;;;;;;5032214;28;20385;-66
2022/04/02 00:09:34;;;;;;;1.20;0.80;;;23.10;33.20;;;;;;5032153;28;20483;-66
2022/04/02 00:12:00;;;;;;;2.03;1.08;;;23.00;33.10;;;;;;5032084;28;20390;-65
2022/04/02 00:14:26;;;;;;;1.65;1.00;;;23.00;33.10;;;;;;5030935;28;20395;-65
2022/04/02 00:16:52;;;;;;;2.40;1.15;;;23.00;33.10;;;;;;5031498;28;20391;-66
2022/04/02 00:19:19;;;;;;;1.70;1.10;;;23.00;33.10;;;;;;5031804;28;20465;-66
2022/04/02 00:21:44;;;;;;;2.10;1.20;;;23.00;33.10;;;;;;5030552;28;20878;-66
2022/04/02 00:24:10;;;;;;;2.10;1.10;;;23.10;33.20;;;;;;5031418;28;20934;-66
2022/04/02 00:26:36;;;;;;;1.77;1.10;;;23.10;33.20;;;;;;5031642;28;20462;-66
2022/04/02 00:29:02;;;;;;;2.58;1.25;;;23.00;33.20;;;;;;5031834;28;20890;-67
2022/04/02 00:31:29;;;;;;;1.45;0.90;;;23.00;33.20;;;;;;5031724;28;20529;-66
2022/04/02 00:33:55;;;;;;;1.50;1.20;;;23.00;33.20;;;;;;5031801;28;20791;-65
2022/04/02 00:36:22;;;;;;;1.50;1.10;;;23.00;33.10;;;;;;5030670;28;20453;-66
2022/04/02 00:38:47;;;;;;;2.70;1.40;;;23.00;33.10;;;;;;5030399;28;20418;-66
2022/04/02 00:41:16;;;;;;;2.60;1.20;;;22.90;33.00;;;;;;5031530;28;20453;-66
2022/04/02 00:43:55;;;;;;;1.45;1.10;;;23.00;33.10;;;;;;5030411;28;20427;-66
2022/04/02 00:46:21;;;;;;;2.30;1.08;;;23.00;33.70;;;;;;5030959;28;20407;-66
2022/04/02 00:48:46;;;;;;;2.00;1.03;;;22.90;33.10;;;;;;5031536;28;20399;-66
2022/04/02 00:51:15;;;;;;;1.50;0.90;;;23.00;33.10;;;;;;5031517;28;20391;-66
2022/04/02 00:53:45;;;;;;;1.50;0.90;;;23.00;33.10;;;;;;5030335;28;20536;-66
2022/04/02 00:56:13;;;;;;;1.42;0.80;;;22.90;33.10;;;;;;5031181;28;20764;-66
2022/04/02 00:58:39;;;;;;;1.90;1.00;;;22.90;33.10;;;;;;5031330;28;20441;-66
2022/04/02 01:01:06;;;;;;;1.52;1.10;;;22.90;33.10;;;;;;5031404;28;20391;-66
2022/04/02 01:03:32;;;;;;;1.40;0.93;;;22.90;33.20;;;;;;5031386;28;20398;-66
2022/04/02 01:05:58;;;;;;;1.88;1.00;;;22.90;33.20;;;;;;5031270;28;20879;-66
2022/04/02 01:08:24;;;;;;;1.50;0.90;;;22.90;33.10;;;;;;5030797;28;20426;-65
2022/04/02 01:10:49;;;;;;;1.50;0.87;;;22.90;33.10;;;;;;5031394;28;20474;-65
2022/04/02 01:13:16;;;;;;;1.13;0.93;;;22.90;33.20;;;;;;5031235;28;20752;-66
2022/04/02 01:15:42;;;;;;;1.53;0.90;;;22.90;33.10;;;;;;5031188;28;20470;-66
2022/04/02 01:18:08;;;;;;;1.60;1.02;;;22.90;33.10;;;;;;5013545;28;20407;-66
2022/04/02 01:20:34;;;;;;;1.23;0.90;;;22.90;33.00;;;;;;5030775;28;20403;-66
2022/04/02 01:23:01;;;;;;;1.40;1.00;;;22.90;33.00;;;;;;5031315;28;20388;-66
2022/04/02 01:25:33;;;;;;;1.33;0.90;;;22.90;33.00;;;;;;5029921;28;20472;-66
2022/04/02 01:28:00;;;;;;;1.40;0.80;;;22.90;33.00;;;;;;5031253;28;20387;-65
2022/04/02 01:30:27;;;;;;;1.83;0.80;;;22.90;33.00;;;;;;5030172;28;20391;-66
2022/04/02 01:32:53;;;;;;;1.10;0.73;;;22.90;33.00;;;;;;5030721;28;20383;-66
2022/04/02 01:35:21;;;;;;;1.25;0.80;;;22.90;33.00;;;;;;5031112;28;20533;-66
2022/04/02 01:37:49;;;;;;;1.63;0.90;;;22.90;33.00;;;;;;5031096;28;20763;-66
2022/04/02 01:40:15;;;;;;;1.20;0.80;;;22.90;33.00;;;;;;5030842;28;20391;-66
2022/04/02 01:42:41;;;;;;;1.53;0.90;;;22.90;33.00;;;;;;5030847;28;20394;-66
2022/04/02 01:45:07;;;;;;;1.67;0.80;;;22.80;32.90;;;;;;5031182;28;20502;-66
2022/04/02 01:47:33;;;;;;;1.30;0.80;;;22.90;33.00;;;;;;5030916;28;20407;-66
2022/04/02 01:49:58;;;;;;;1.30;0.80;;;22.90;33.00;;;;;;5033721;28;20410;-65
2022/04/02 01:52:24;;;;;;;1.52;0.90;;;22.80;33.00;;;;;;5034209;28;20387;-66
2022/04/02 01:54:50;;;;;;;1.00;0.60;;;22.80;33.00;;;;;;5034773;28;20410;-65
2022/04/02 01:57:16;;;;;;;1.90;1.00;;;22.90;33.00;;;;;;5034602;28;20375;-66
2022/04/02 01:59:44;;;;;;;1.58;0.80;;;22.80;32.90;;;;;;5034671;28;20415;-66
2022/04/02 02:02:10;;;;;;;1.00;0.80;;;22.80;32.90;;;;;;5034537;28;20388;-66
2022/04/02 02:04:37;;;;;;;1.05;0.80;;;22.80;32.90;;;;;;5032530;28;20756;-66
2022/04/02 02:07:04;;;;;;;1.23;0.90;;;22.80;32.90;;;;;;5033248;28;20949;-65
2022/04/02 02:09:30;;;;;;;1.60;0.82;;;22.80;32.90;;;;;;5034433;28;20395;-66
2022/04/02 02:11:56;;;;;;;0.90;0.80;;;22.80;32.90;;;;;;5033191;28;20509;-66
2022/04/02 02:14:22;;;;;;;1.23;0.85;;;22.80;32.90;;;;;;5033860;28;20487;-65
2022/04/02 02:16:48;;;;;;;1.30;0.88;;;22.80;32.90;;;;;;5033105;28;20391;-66
2022/04/02 02:19:13;;;;;;;1.13;0.70;;;22.80;32.80;;;;;;5034170;28;20951;-66
2022/04/02 02:21:39;;;;;;;1.07;0.70;;;22.80;32.90;;;;;;5034252;28;20919;-66
2022/04/02 02:24:06;;;;;;;1.00;0.60;;;22.80;32.90;;;;;;5034235;28;20433;-65
2022/04/02 02:26:32;;;;;;;1.30;0.90;;;22.80;32.90;;;;;;5033635;28;20452;-66
2022/04/02 02:28:58;;;;;;;1.08;0.90;;;22.80;32.90;;;;;;5034090;28;20767;-66
2022/04/02 02:31:24;;;;;;;1.15;0.85;;;22.80;32.90;;;;;;5033972;28;20394;-66
2022/04/02 02:36:34;;;;;;;1.60;1.00;;;22.80;33.00;;;;;;5033471;28;20437;-66
2022/04/02 02:38:59;;;;;;;1.35;0.95;;;22.80;33.00;;;;;;5033894;28;20502;-66
2022/04/02 02:41:25;;;;;;;1.30;1.00;;;22.80;32.90;;;;;;5033809;28;20383;-66
2022/04/02 02:43:51;;;;;;;2.47;1.20;;;22.80;32.90;;;;;;5033777;28;20395;-65
2022/04/02 02:46:17;;;;;;;1.65;1.20;;;22.80;32.80;;;;;;5032672;28;20420;-66
2022/04/02 02:48:46;;;;;;;1.20;1.00;;;22.80;32.80;;;;;;5032487;28;21278;-66
2022/04/02 02:51:11;;;;;;;1.40;1.02;;;22.80;32.80;;;;;;5033589;28;20763;-65
2022/04/02 02:53:37;;;;;;;2.00;1.17;;;22.80;32.80;;;;;;5033704;28;20387;-66
2022/04/02 02:56:03;;;;;;;1.60;1.15;;;22.80;32.80;;;;;;5033484;28;20392;-66
2022/04/02 02:58:29;;;;;;;1.50;1.15;;;22.80;32.80;;;;;;5032884;28;20907;-66
2022/04/02 03:00:55;;;;;;;1.60;1.20;;;22.80;32.70;;;;;;5032996;28;20387;-66
2022/04/02 03:03:22;;;;;;;1.30;1.17;;;22.70;32.70;;;;;;5033384;28;20402;-65
2022/04/02 03:05:48;;;;;;;1.60;1.30;;;22.70;32.70;;;;;;5032153;28;20392;-66
2022/04/02 03:08:14;;;;;;;1.30;1.08;;;22.80;32.80;;;;;;5033282;28;20398;-66
2022/04/02 03:10:40;;;;;;;2.63;1.53;;;22.70;32.70;;;;;;5032827;28;20391;-66
2022/04/02 03:13:06;;;;;;;1.70;1.40;;;22.70;32.70;;;;;;5033299;28;20427;-65
2022/04/02 03:15:32;;;;;;;2.30;1.20;;;22.70;32.70;;;;;;5032911;28;20911;-66
2022/04/02 03:18:06;;;;;;;2.30;1.40;;;22.70;32.80;;;;;;5033088;28;20414;-65
2022/04/02 03:20:32;;;;;;;2.05;1.45;;;22.70;32.70;;;;;;5031323;28;20489;-66
2022/04/02 03:22:58;;;;;;;2.03;1.60;;;22.70;32.80;;;;;;5032888;28;20391;-66
2022/04/02 03:25:24;;;;;;;2.55;1.75;;;22.70;32.70;;;;;;5033013;28;20398;-66
2022/04/02 03:27:50;;;;;;;2.03;1.60;;;22.70;32.80;;;;;;5032999;28;20387;-65
2022/04/02 03:30:20;;;;;;;2.17;1.70;;;22.70;32.80;;;;;;5032869;28;20471;-65
2022/04/02 03:32:46;;;;;;;2.00;1.80;;;22.70;32.70;;;;;;5032588;28;20383;-66
2022/04/02 03:35:14;;;;;;;2.20;1.90;;;22.70;32.70;;;;;;5031537;28;20399;-66
2022/04/02 03:37:41;;;;;;;2.07;1.87;;;22.70;32.70;;;;;;5032716;28;20395;-66
2022/04/02 03:40:09;;;;;;;2.10;1.90;;;22.70;32.70;;;;;;5031536;28;20403;-66
2022/04/02 03:42:36;;;;;;;2.40;1.80;;;22.70;32.70;;;;;;5032167;28;20391;-66
2022/04/02 03:45:03;;;;;;;2.45;2.10;;;22.70;32.60;;;;;;5032635;28;20395;-66
2022/04/02 03:47:29;;;;;;;1.90;1.70;;;22.70;32.60;;;;;;5030936;28;20471;-65
2022/04/02 03:49:54;;;;;;;2.38;1.98;;;22.70;32.60;;;;;;5031298;28;20415;-66
2022/04/02 03:52:20;;;;;;;2.30;2.10;;;22.70;32.60;;;;;;5032111;28;20387;-65
2022/04/02 03:54:46;;;;;;;2.25;2.05;;;22.60;32.50;;;;;;5032221;28;20891;-66
2022/04/02 03:57:13;;;;;;;2.63;2.23;;;22.60;32.60;;;;;;5032261;28;20747;-66
2022/04/02 03:59:40;;;;;;;2.53;2.15;;;22.60;32.60;;;;;;5032341;28;20892;-66
2022/04/02 04:02:07;;;;;;;2.92;2.10;;;22.60;32.60;;;;;;5031678;28;20398;-67
2022/04/02 04:04:33;;;;;;;2.53;2.20;;;22.60;32.60;;;;;;5013964;28;20473;-66
2022/04/02 04:06:59;;;;;;;2.60;2.20;;;22.60;32.60;;;;;;5032315;28;20383;-66
2022/04/02 04:09:25;;;;;;;2.80;2.33;;;22.60;32.60;;;;;;5032163;28;20391;-66
2022/04/02 04:11:51;;;;;;;2.40;2.10;;;22.60;32.60;;;;;;5031280;28;20402;-66
2022/04/02 04:14:17;;;;;;;2.67;2.07;;;22.60;32.60;;;;;;5032056;28;20426;-65
2022/04/02 04:16:43;;;;;;;2.95;2.25;;;22.60;32.60;;;;;;5031369;28;20387;-65
2022/04/02 04:19:10;;;;;;;2.88;2.45;;;22.60;32.60;;;;;;5031899;28;20419;-66
2022/04/02 04:21:35;;;;;;;2.70;2.20;;;22.60;32.60;;;;;;5030772;28;20442;-66
2022/04/02 04:24:02;;;;;;;3.00;2.50;;;22.60;32.60;;;;;;5031996;28;20485;-65
2022/04/02 04:26:28;;;;;;;3.00;2.55;;;22.60;32.60;;;;;;5031739;28;20470;-65
2022/04/02 04:28:54;;;;;;;3.03;2.20;;;22.50;32.60;;;;;;5031787;28;20470;-66
2022/04/02 04:31:20;;;;;;;2.60;2.40;;;22.50;32.60;;;;;;5031868;28;20474;-65
2022/04/02 04:33:47;;;;;;;2.92;2.20;;;22.50;32.50;;;;;;5031782;28;20748;-65
2022/04/02 04:36:13;;;;;;;2.55;2.30;;;22.50;32.60;;;;;;5031890;28;20390;-65
2022/04/02 04:38:39;;;;;;;2.60;2.30;;;22.50;32.50;;;;;;5031160;28;20505;-65
2022/04/02 04:41:04;;;;;;;3.05;2.40;;;22.50;32.50;;;;;;5014212;28;20481;-66
2022/04/02 04:43:31;;;;;;;3.90;2.80;;;22.50;32.60;;;;;;5031685;28;20387;-65
2022/04/02 04:45:57;;;;;;;3.30;2.67;;;22.50;32.60;;;;;;5031481;28;20402;-65
2022/04/02 04:48:23;;;;;;;2.97;2.30;;;22.50;32.70;;;;;;5031377;28;20743;-65
2022/04/02 04:50:49;;;;;;;3.40;2.60;;;22.50;32.60;;;;;;5031403;28;20391;-65
2022/04/02 04:53:15;;;;;;;2.80;2.50;;;22.50;32.80;;;;;;5031474;28;20391;-65
2022/04/02 04:55:40;;;;;;;3.22;2.70;;;22.50;32.70;;;;;;5031637;28;20394;-65
2022/04/02 04:58:07;;;;;;;3.27;2.37;;;22.40;32.70;;;;;;5031446;28;20486;-65
2022/04/02 05:00:32;;;;;;;2.60;2.40;;;22.50;32.80;;;;;;5031042;28;20399;-65
2022/04/02 05:02:58;;;;;;;3.13;2.58;;;22.40;32.60;;;;;;5030216;28;20414;-65
2022/04/02 05:05:25;;;;;;;3.03;2.72;;;22.40;32.50;;;;;;5031117;28;20399;-65
2022/04/02 05:07:52;;;;;;;3.20;2.60;;;22.40;32.50;;;;;;5031379;28;20863;-65
2022/04/02 05:10:18;;;;;;;3.17;2.47;;;22.50;32.60;;;;;;5031372;28;20399;-65
2022/04/02 05:12:43;;;;;;;3.00;2.70;;;22.40;32.50;;;;;;5030928;28;20387;-66
2022/04/02 05:15:09;;;;;;;2.92;2.55;;;22.40;32.60;;;;;;5031395;28;20406;-65
2022/04/02 05:17:36;;;;;;;2.78;2.50;;;22.50;32.60;;;;;;5030984;28;20391;-65
2022/04/02 05:20:07;;;;;;;3.67;2.70;;;22.40;32.60;;;;;;5030720;28;20456;-65
2022/04/02 05:22:33;;;;;;;3.08;2.70;;;22.40;32.60;;;;;;5031012;28;20484;-65
2022/04/02 05:24:58;;;;;;;3.50;2.70;;;22.40;32.50;;;;;;5035231;28;20916;-64
2022/04/02 05:27:28;;;;;;;2.85;2.60;;;22.50;32.90;;;;;;5035142;28;20387;-64
2022/04/02 05:29:54;;;;;;;3.53;2.83;;;22.60;33.10;;;;;;5035252;28;20464;-65
2022/04/02 05:32:20;;;;;;;4.10;2.87;;;22.70;33.00;;;;;;5034993;28;20462;-66
2022/04/02 05:34:46;;;;;;;3.20;2.90;;;22.80;33.80;;;;;;5032834;28;20486;-66
2022/04/02 05:37:11;;;;;;;4.03;2.80;;;22.80;33.50;;;;;;5033458;28;20407;-65
2022/04/02 05:39:37;;;;;;;2.67;2.43;;;22.80;33.90;;;;;;5033879;28;20410;-65
2022/04/02 05:42:05;;;;;;;4.47;2.83;;;22.90;34.50;;;;;;5033596;28;20399;-66
2022/04/02 05:44:31;;;;;;;4.22;2.83;;;22.90;34.30;;;;;;5034469;28;20391;-65
2022/04/02 05:46:57;;;;;;;3.55;2.75;;;22.90;34.10;;;;;;5034553;28;20403;-64
2022/04/02 05:49:23;;;;;;;3.90;2.80;;;22.90;34.30;;;;;;5034762;28;20755;-65
2022/04/02 05:51:48;;;;;;;4.60;2.90;;;22.90;34.10;;;;;;5034768;28;20725;-65
2022/04/02 05:54:14;;;;;;;4.47;2.70;;;22.90;34.50;;;;;;5034457;28;20398;-65
2022/04/02 05:56:40;;;;;;;5.37;3.00;;;23.00;34.80;;;;;;5034087;28;20398;-66
2022/04/02 05:59:07;;;;;;;3.83;2.80;;;23.00;35.10;;;;;;5034392;28;20422;-66
2022/04/02 06:01:35;;;;;;;6.70;2.90;;;23.10;35.60;;;;;;5033125;28;20482;-65
2022/04/02 06:04:02;;;;;;;5.32;2.60;;;23.20;35.40;;;;;;5034456;28;21009;-66
2022/04/02 06:06:28;;;;;;;4.50;2.60;;;23.20;36.20;;;;;;5034177;28;20879;-65
2022/04/02 06:08:53;;;;;;;3.55;3.03;;;23.20;36.30;;;;;;5034107;28;20394;-65
2022/04/02 06:11:19;;;;;;;5.20;2.90;;;23.30;36.40;;;;;;5033671;28;20473;-66
2022/04/02 06:13:44;;;;;;;4.32;2.75;;;23.30;37.00;;;;;;5034088;28;20733;-65
2022/04/02 06:16:10;;;;;;;5.87;2.80;;;23.30;37.10;;;;;;5034197;28;20394;-65
2022/04/02 06:18:36;;;;;;;6.43;2.55;;;23.40;37.20;;;;;;5032035;28;20429;-65
2022/04/02 06:21:03;;;;;;;4.30;2.80;;;23.40;37.30;;;;;;5034193;28;20391;-65
2022/04/02 06:23:30;;;;;;;5.65;2.83;;;23.40;36.80;;;;;;5033960;28;20395;-65
2022/04/02 06:25:56;;;;;;;3.30;2.83;;;23.30;36.00;;;;;;5034115;28;20395;-65
2022/04/02 06:28:22;;;;;;;5.30;2.80;;;23.30;36.40;;;;;;5034070;28;20887;-65
2022/04/02 06:30:48;;;;;;;4.60;3.00;;;23.30;36.10;;;;;;5033576;28;20394;-65
2022/04/02 06:33:14;;;;;;;4.88;2.80;;;23.40;36.00;;;;;;5033682;28;20875;-65
2022/04/02 06:35:39;;;;;;;4.50;2.95;;;23.40;35.40;;;;;;5032431;28;20395;-66
2022/04/02 06:38:05;;;;;;;5.22;2.90;;;23.40;35.80;;;;;;5033718;28;20502;-65
2022/04/02 06:40:31;;;;;;;7.47;2.80;;;23.40;35.10;;;;;;5032620;28;20435;-66
2022/04/02 06:42:57;;;;;;;7.07;2.70;;;23.40;35.60;;;;;;5031650;28;20907;-65
2022/04/02 06:45:23;;;;;;;7.90;2.92;;;23.40;36.50;;;;;;5031733;28;20935;-66
2022/04/02 06:47:49;;;;;;;6.97;2.80;;;23.40;36.20;;;;;;5031646;28;20450;-66
2022/04/02 06:50:15;;;;;;;5.93;3.10;;;23.40;36.10;;;;;;5031569;28;20419;-66
2022/04/02 06:52:42;;;;;;;5.80;2.80;;;23.40;36.00;;;;;;5031144;28;20403;-66
2022/04/02 06:55:09;;;;;;;4.75;2.80;;;23.40;35.90;;;;;;5031563;28;20379;-66
2022/04/02 06:57:54;;;;;;;8.45;2.90;;;23.40;36.10;;;;;;5031919;28;20423;-66
2022/04/02 07:00:21;;;;;;;8.90;3.20;;;23.40;36.50;;;;;;5013684;28;20403;-66
2022/04/02 07:02:46;;;;;;;5.13;2.80;;;23.40;36.10;;;;;;5030868;28;20388;-65
2022/04/02 07:05:12;;;;;;;5.32;2.90;;;23.30;36.10;;;;;;5031661;28;20402;-66
2022/04/02 07:07:38;;;;;;;5.65;2.78;;;23.30;35.80;;;;;;5030773;28;20898;-67
2022/04/02 07:10:05;;;;;;;5.33;2.60;;;23.30;35.70;;;;;;5031283;28;20398;-66
2022/04/02 07:12:31;;;;;;;3.45;2.28;;;23.20;35.20;;;;;;5029884;28;20396;-66
2022/04/02 07:14:57;;;;;;;5.50;2.80;;;23.20;35.00;;;;;;5031139;28;20449;-67
2022/04/02 07:17:23;;;;;;;4.70;2.70;;;23.20;34.50;;;;;;5031065;28;20387;-66
2022/04/02 07:19:50;;;;;;;4.00;2.47;;;23.10;34.00;;;;;;5031021;28;20498;-66
2022/04/02 07:22:18;;;;;;;4.50;2.53;;;23.20;33.80;;;;;;5030784;28;20445;-66
2022/04/02 07:24:45;;;;;;;3.72;2.80;;;23.10;33.50;;;;;;5030767;28;20875;-66
2022/04/02 07:27:10;;;;;;;4.00;2.70;;;23.10;33.40;;;;;;5031027;28;20402;-66
2022/04/02 07:29:36;;;;;;;4.40;2.58;;;23.10;33.20;;;;;;5030973;28;20387;-67
2022/04/02 07:32:03;;;;;;;4.38;2.58;;;23.10;33.10;;;;;;5030872;28;20400;-66
2022/04/02 07:34:29;;;;;;;4.70;2.80;;;23.10;33.10;;;;;;5030648;28;20399;-66
2022/04/02 07:36:57;;;;;;;3.88;2.60;;;23.00;33.00;;;;;;5030355;28;20390;-66
2022/04/02 07:39:52;;;;;;;4.35;2.70;;;23.00;32.90;;;;;;5029279;28;20807;-66
2022/04/02 07:42:34;;;;;;;4.07;2.58;;;23.00;32.90;;;;;;4992397;28;20429;-66
2022/04/02 07:45:05;;;;;;;5.72;2.70;;;23.00;33.50;;;;;;5030575;28;20395;-66
2022/04/02 07:47:36;;;;;;;4.90;2.50;;;23.00;32.80;;;;;;5029172;28;20982;-66
2022/04/02 07:50:13;;;;;;;3.97;2.67;;;23.00;32.80;;;;;;5030131;28;20383;-66
2022/04/02 07:52:51;;;;;;;3.63;2.72;;;23.00;32.80;;;;;;5030208;28;20419;-66
2022/04/02 07:55:19;;;;;;;4.20;2.58;;;23.00;32.70;;;;;;5030421;28;20384;-66
2022/04/02 07:57:46;;;;;;;4.40;2.57;;;23.00;32.60;;;;;;5030436;28;20387;-66
2022/04/02 08:00:14;;;;;;;3.72;2.90;;;23.00;32.50;;;;;;5030117;28;20415;-66
2022/04/02 08:02:43;;;;;;;3.38;2.40;;;22.90;32.40;;;;;;5029837;28;21007;-66
2022/04/02 08:05:14;;;;;;;5.72;2.88;;;22.90;32.40;;;;;;5030249;28;20390;-66
2022/04/02 08:07:54;;;;;;;7.45;3.42;;;22.90;32.50;;;;;;5030326;28;20425;-66
2022/04/02 08:10:24;;;;;;;6.22;3.05;;;22.80;32.50;;;;;;5030276;28;20387;-66
2022/04/02 08:12:50;;;;;;;5.57;2.80;;;22.80;32.70;;;;;;5028487;28;20422;-66
2022/04/02 08:15:18;;;;;;;5.40;2.75;;;22.80;32.60;;;;;;5029849;28;20860;-66
2022/04/02 08:17:45;;;;;;;5.40;2.80;;;22.80;32.50;;;;;;5029954;28;20393;-66
2022/04/02 08:20:14;;;;;;;3.30;2.53;;;22.80;32.40;;;;;;5030008;28;20982;-66
2022/04/02 08:22:41;;;;;;;5.70;2.70;;;22.90;33.20;;;;;;5029686;28;20386;-66
2022/04/02 08:25:07;;;;;;;5.72;2.63;;;23.00;33.50;;;;;;5029912;28;20960;-66
2022/04/02 08:27:35;;;;;;;5.00;2.60;;;23.00;33.20;;;;;;5029726;28;20814;-66
2022/04/02 08:30:13;;;;;;;4.63;2.88;;;23.00;33.50;;;;;;5029886;28;20391;-64
2022/04/02 08:32:54;;;;;;;3.72;2.70;;;22.90;32.50;;;;;;5029619;28;20403;-66
2022/04/02 08:35:31;;;;;;;4.25;2.80;;;22.70;32.10;;;;;;5029779;28;20521;-65
2022/04/02 08:38:17;;;;;;;4.22;2.50;;;22.70;33.40;;;;;;5029699;28;20395;-65
2022/04/02 08:41:07;;;;;;;6.22;2.70;;;22.70;33.80;;;;;;5029203;28;20406;-65
2022/04/02 08:43:51;;;;;;;4.45;2.80;;;22.80;33.50;;;;;;5029609;28;20470;-65
2022/04/02 08:46:26;;;;;;;6.18;2.85;;;22.80;33.10;;;;;;5029521;28;20473;-66
2022/04/02 08:48:59;;;;;;;3.50;2.70;;;22.80;33.70;;;;;;5030227;28;20399;-65
2022/04/02 08:51:47;;;;;;;5.60;2.77;;;22.80;33.30;;;;;;5028268;28;20445;-65
2022/04/02 08:54:21;;;;;;;3.78;2.53;;;22.80;33.60;;;;;;5029473;28;20394;-65
2022/04/02 08:56:48;;;;;;;3.97;2.58;;;22.70;33.20;;;;;;5028963;28;20891;-65
2022/04/02 08:59:42;;;;;;;5.40;2.60;;;22.80;32.80;;;;;;5031169;28;20455;-65
2022/04/02 09:02:17;;;;;;;5.38;3.20;;;22.80;33.10;;;;;;5028970;28;20402;-66
2022/04/02 09:05:01;;;;;;;4.45;2.60;;;22.80;33.40;;;;;;5029028;28;20474;-64
2022/04/02 09:07:57;;;;;;;3.55;2.60;;;22.80;32.90;;;;;;5028958;28;20767;-63
2022/04/02 09:10:54;;;;;;;3.92;2.58;;;22.80;32.90;;;;;;5029216;28;20391;-63
2022/04/02 09:13:32;;;;;;;7.00;2.60;;;22.70;32.70;;;;;;5029344;28;20383;-65
2022/04/02 09:16:06;;;;;;;3.50;2.85;;;22.70;32.70;;;;;;5057067;22;20446;-64
2022/04/02 09:18:39;;;;;;;4.60;2.37;;;22.70;32.70;;;;;;5049127;28;20429;-63
2022/04/02 09:21:37;;;;;;;3.88;2.40;;;22.70;32.80;;;;;;5064225;28;20401;-64
2022/04/02 09:24:13;;;;;;;4.88;2.67;;;22.70;32.60;;;;;;5048960;28;20761;-64
2022/04/02 09:26:54;;;;;;;3.70;2.50;;;22.70;32.60;;;;;;5048963;28;21002;-64
2022/04/02 09:29:26;;;;;;;4.15;2.90;;;22.70;32.50;;;;;;5048941;28;20412;-64
2022/04/02 09:32:10;;;;;;;4.47;2.60;;;22.80;32.60;;;;;;5048918;28;20386;-64
2022/04/02 09:34:45;;;;;;;4.03;2.80;;;22.80;32.60;;;;;;5048818;28;20396;-64
2022/04/02 09:37:33;;;;;;;4.35;2.80;;;22.70;32.50;;;;;;5048768;28;20377;-63
2022/04/02 09:40:11;;;;;;;3.58;2.70;;;22.70;32.40;;;;;;5048799;28;20417;-64
2022/04/02 09:42:38;;;;;;;3.65;2.88;;;22.70;32.50;;;;;;5048790;28;20386;-64
2022/04/02 09:45:10;;;;;;;4.30;2.97;;;22.80;32.60;;;;;;5048728;28;20433;-63
2022/04/02 09:47:48;;;;;;;4.03;2.63;;;22.70;32.60;;;;;;5064246;28;20392;-64
2022/04/02 09:50:16;;;;;;;5.15;2.85;;;22.80;32.60;;;;;;5048692;28;20530;-63
2022/04/02 09:53:19;;;;;;;5.13;3.03;;;22.80;32.80;;;;;;5048707;28;20418;-65
2022/04/02 09:56:15;;;;;;;4.30;2.85;;;22.80;32.90;;;;;;5048854;28;20390;-64
2022/04/02 09:59:05;;;;;;;4.95;3.08;;;22.80;33.10;;;;;;5064933;28;20409;-65
2022/04/02 10:01:31;;;;;;;5.88;3.38;;;22.90;33.10;;;;;;5048829;28;20390;-65
2022/04/02 10:04:18;;;;;;;4.90;3.10;;;22.90;33.00;;;;;;5064135;28;20385;-65
2022/04/02 10:06:48;;;;;;;4.57;2.70;;;22.90;32.90;;;;;;5044543;28;20397;-64
2022/04/02 10:09:15;;;;;;;4.97;3.10;;;23.00;32.70;;;;;;5049314;28;20384;-64
2022/04/02 10:11:52;;;;;;;5.05;2.88;;;22.90;32.90;;;;;;5052215;28;20400;-64
2022/04/02 10:14:23;;;;;;;4.68;3.30;;;22.90;33.10;;;;;;5052331;28;20753;-64
2022/04/02 10:17:06;;;;;;;5.28;3.08;;;22.90;33.00;;;;;;5051827;28;20750;-65
2022/04/02 10:19:38;;;;;;;4.38;2.92;;;22.90;32.90;;;;;;5047596;28;20421;-64
2022/04/02 10:22:07;;;;;;;4.53;3.08;;;22.90;32.80;;;;;;5061770;28;20391;-64
2022/04/02 10:24:50;;;;;;;5.77;3.23;;;22.90;32.40;;;;;;5056762;28;20538;-64
2022/04/02 10:27:36;;;;;;;5.50;3.42;;;22.90;33.00;;;;;;5039721;28;20380;-64
2022/04/02 10:30:05;;;;;;;5.57;3.60;;;22.90;33.00;;;;;;5061240;28;20389;-64
2022/04/02 10:32:53;;;;;;;5.28;3.80;;;22.90;33.00;;;;;;5065428;28;20388;-64
2022/04/02 10:35:20;;;;;;;5.67;3.70;;;23.00;33.00;;;;;;5048464;28;20386;-64
2022/04/02 10:38:09;;;;;;;11.82;5.05;;;22.90;33.00;;;;;;5051118;28;20403;-64
2022/04/02 10:40:49;;;;;;;8.57;4.60;;;23.10;36.80;;;;;;5050660;28;21016;-65
2022/04/02 10:43:30;;;;;;;8.07;4.40;;;23.30;36.40;;;;;;5050758;28;20386;-64
2022/04/02 10:45:58;;;;;;;6.78;4.25;;;23.40;35.30;;;;;;5050728;28;20573;-64
2022/04/02 10:48:42;;;;;;;6.35;4.30;;;23.40;35.00;;;;;;5050783;28;20418;-64
2022/04/02 10:51:10;;;;;;;5.97;4.20;;;23.40;34.70;;;;;;5050430;28;20988;-64
2022/04/02 10:53:42;;;;;;;6.80;3.80;;;23.40;33.70;;;;;;5050600;28;20446;-64
2022/04/02 10:56:20;;;;;;;6.90;3.92;;;23.30;34.00;;;;;;5050557;28;20401;-65
2022/04/02 10:58:50;;;;;;;6.32;3.90;;;23.30;33.80;;;;;;5048954;28;20405;-65
2022/04/02 11:01:21;;;;;;;6.45;3.80;;;23.30;34.40;;;;;;5050444;28;20401;-64
2022/04/02 11:03:57;;;;;;;6.32;3.80;;;23.30;35.20;;;;;;5050517;28;20476;-64
2022/04/02 11:06:49;;;;;;;7.20;4.28;;;23.40;33.70;;;;;;5050939;28;20820;-64
2022/04/02 11:09:36;;;;;;;6.60;4.18;;;23.30;34.40;;;;;;5052570;28;20381;-64
2022/04/02 11:12:05;;;;;;;7.37;4.10;;;23.30;34.00;;;;;;5060931;28;20390;-64
2022/04/02 11:14:45;;;;;;;8.30;4.15;;;23.20;34.40;;;;;;5067183;28;20390;-64
2022/04/02 11:17:26;;;;;;;6.97;4.10;;;23.20;34.60;;;;;;5072535;28;20408;-64
2022/04/02 11:19:56;;;;;;;6.35;4.00;;;23.20;34.50;;;;;;5082270;28;20489;-64
2022/04/02 11:22:29;;;;;;;8.10;3.63;;;23.30;34.60;;;;;;5085230;28;20389;-64
2022/04/02 11:25:05;;;;;;;5.90;3.47;;;23.30;34.70;;;;;;5075515;28;20483;-64
2022/04/02 11:27:36;;;;;;;6.95;3.85;;;23.30;34.70;;;;;;5086521;28;20430;-64
2022/04/02 11:30:08;;;;;;;6.47;3.40;;;23.50;34.70;;;;;;5083149;28;20385;-64
2022/04/02 11:32:40;;;;;;;7.70;3.45;;;23.50;34.80;;;;;;5076683;28;20450;-64
2022/04/02 11:35:13;;;;;;;6.22;3.20;;;23.50;34.60;;;;;;5088019;28;20394;-64
2022/04/02 11:37:53;;;;;;;6.90;3.13;;;23.60;34.90;;;;;;5080170;28;20891;-64
2022/04/02 11:40:20;;;;;;;5.82;3.60;;;23.60;34.90;;;;;;5079462;28;20397;-64
2022/04/02 11:42:47;;;;;;;5.65;3.60;;;23.60;34.40;;;;;;5088445;28;20385;-63
2022/04/02 11:45:18;;;;;;;5.93;3.73;;;23.70;34.40;;;;;;5061001;28;20399;-64
2022/04/02 11:47:49;;;;;;;5.03;3.22;;;23.70;34.40;;;;;;5079938;28;20401;-64
2022/04/02 11:50:26;;;;;;;5.35;3.20;;;23.70;34.20;;;;;;5079985;28;20933;-64
2022/04/02 11:52:57;;;;;;;6.38;3.38;;;23.60;34.20;;;;;;5088110;28;20865;-65
2022/04/02 11:55:27;;;;;;;5.27;3.10;;;23.60;34.20;;;;;;5076992;28;20407;-65
2022/04/02 11:58:11;;;;;;;6.07;3.33;;;23.70;34.00;;;;;;5082845;28;20379;-66
2022/04/02 12:00:39;;;;;;;7.80;3.22;;;23.60;33.60;;;;;;5087116;28;20884;-64
2022/04/02 12:03:29;;;;;;;5.60;3.17;;;23.60;34.20;;;;;;5074270;28;20376;-64
2022/04/02 12:05:54;;;;;;;4.40;3.00;;;23.50;34.20;;;;;;5081473;28;20915;-64
2022/04/02 12:08:32;;;;;;;6.27;3.23;;;23.50;34.10;;;;;;5100146;28;20417;-64
2022/04/02 12:11:00;;;;;;;4.43;3.17;;;23.50;34.10;;;;;;5076432;28;20449;-64
2022/04/02 12:13:26;;;;;;;4.45;3.10;;;23.50;34.00;;;;;;5078191;28;21060;-64
2022/04/02 12:16:13;;;;;;;5.03;3.08;;;23.50;34.20;;;;;;5082296;28;20408;-64
2022/04/02 12:18:58;;;;;;;4.55;2.92;;;23.50;34.10;;;;;;5086965;28;20418;-64
2022/04/02 12:21:32;;;;;;;5.30;3.03;;;23.50;34.10;;;;;;5061642;28;20498;-65
2022/04/02 12:24:01;;;;;;;4.50;3.08;;;23.40;33.80;;;;;;5081564;28;20407;-65
2022/04/02 12:26:27;;;;;;;4.15;2.90;;;23.30;33.80;;;;;;5084884;28;20389;-64
2022/04/02 12:28:58;;;;;;;4.50;3.40;;;23.30;33.90;;;;;;5074753;28;20879;-64
2022/04/02 12:31:26;;;;;;;4.18;3.10;;;23.30;34.00;;;;;;5086447;28;20760;-65
2022/04/02 12:33:53;;;;;;;4.80;2.95;;;23.30;33.70;;;;;;5095244;28;20390;-65
2022/04/02 12:36:35;;;;;;;4.53;2.77;;;23.30;33.80;;;;;;5078715;28;20890;-65
2022/04/02 12:39:10;;;;;;;4.75;3.00;;;23.30;33.80;;;;;;5087355;28;20414;-64
2022/04/02 12:41:48;;;;;;;5.00;2.58;;;23.30;33.70;;;;;;5078122;28;20374;-64
2022/04/02 12:44:19;;;;;;;4.83;2.57;;;23.30;33.70;;;;;;5079808;28;20399;-65
2022/04/02 12:46:46;;;;;;;4.45;3.15;;;23.30;33.50;;;;;;5103294;28;20761;-65
2022/04/02 12:49:32;;;;;;;4.93;2.90;;;23.30;33.50;;;;;;5072718;28;20455;-65
2022/04/02 12:52:18;;;;;;;4.50;2.63;;;23.30;33.50;;;;;;5081510;28;20455;-64
2022/04/02 12:54:55;;;;;;;4.22;2.80;;;23.30;33.50;;;;;;5087517;28;20482;-64
2022/04/02 12:57:21;;;;;;;3.42;2.60;;;23.30;33.50;;;;;;5060225;28;20432;-64
2022/04/02 12:59:55;;;;;;;4.18;2.97;;;23.30;33.70;;;;;;5082901;28;20419;-65
2022/04/02 13:02:22;;;;;;;3.45;2.60;;;23.30;33.80;;;;;;5083904;28;20382;-64
2022/04/02 13:04:57;;;;;;;3.45;2.72;;;23.30;33.60;;;;;;5074055;28;20457;-64
2022/04/02 13:07:23;;;;;;;4.53;2.50;;;23.30;34.00;;;;;;5085979;28;20511;-65